createdAt,value
2018-03-22T00:00:59.749Z,8.63
2018-03-22T00:02:00.215Z,8.64
2018-03-22T00:03:00.683Z,8.64
2018-03-22T00:04:01.151Z,8.65
2018-03-22T00:05:01.662Z,8.63
2018-03-22T00:06:02.090Z,8.62
2018-03-22T00:07:02.553Z,8.61
2018-03-22T00:08:03.020Z,8.60
2018-03-22T00:09:03.487Z,8.59
2018-03-22T00:10:03.955Z,8.57
2018-03-22T00:11:04.422Z,8.57
2018-03-22T00:12:04.891Z,8.57
2018-03-22T00:13:05.357Z,8.57
2018-03-22T00:14:05.824Z,8.56
2018-03-22T00:15:06.294Z,8.57
2018-03-22T00:16:06.758Z,8.58
2018-03-22T00:17:07.228Z,8.57
2018-03-22T00:18:07.695Z,8.58
2018-03-22T00:19:08.163Z,8.56
2018-03-22T00:20:08.631Z,8.56
2018-03-22T00:21:09.098Z,8.56
2018-03-22T00:22:09.563Z,8.54
2018-03-22T00:23:10.032Z,8.55
2018-03-22T00:24:10.498Z,8.54
2018-03-22T00:25:10.967Z,8.53
2018-03-22T00:26:11.433Z,8.54
2018-03-22T00:27:11.903Z,8.52
2018-03-22T00:28:12.369Z,8.51
2018-03-22T00:29:12.837Z,8.50
2018-03-22T00:30:13.303Z,8.50
2018-03-22T00:31:13.772Z,8.50
2018-03-22T00:32:14.239Z,8.50
2018-03-22T00:33:14.744Z,8.47
2018-03-22T00:34:15.220Z,8.47
2018-03-22T00:35:15.638Z,8.49
2018-03-22T00:36:16.107Z,8.47
2018-03-22T00:37:16.575Z,8.50
2018-03-22T00:38:17.040Z,8.51
2018-03-22T00:39:17.525Z,8.50
2018-03-22T00:40:17.976Z,8.49
2018-03-22T00:41:18.444Z,8.50
2018-03-22T00:42:18.909Z,8.50
2018-03-22T00:43:19.381Z,8.51
2018-03-22T00:44:20.098Z,8.52
2018-03-22T00:45:20.312Z,8.52
2018-03-22T00:46:20.783Z,8.52
2018-03-22T00:47:21.248Z,8.53
2018-03-22T00:48:21.713Z,8.54
2018-03-22T00:49:22.240Z,8.52
2018-03-22T00:50:22.647Z,8.53
2018-03-22T00:51:23.117Z,8.55
2018-03-22T00:52:23.582Z,8.55
2018-03-22T00:53:24.054Z,8.55
2018-03-22T00:54:24.518Z,8.54
2018-03-22T00:55:24.986Z,8.53
2018-03-22T00:56:25.456Z,8.51
2018-03-22T00:57:25.920Z,8.50
2018-03-22T00:58:26.385Z,8.51
2018-03-22T00:59:26.857Z,8.49
2018-03-22T01:00:27.320Z,8.47
2018-03-22T01:01:27.789Z,8.47
2018-03-22T01:02:28.255Z,8.47
2018-03-22T01:03:28.734Z,8.46
2018-03-22T01:04:29.189Z,8.45
2018-03-22T01:05:29.658Z,8.43
2018-03-22T01:06:30.128Z,8.41
2018-03-22T01:07:30.592Z,8.40
2018-03-22T01:08:31.060Z,8.41
2018-03-22T01:09:31.526Z,8.39
2018-03-22T01:10:31.991Z,8.41
2018-03-22T01:11:32.460Z,8.38
2018-03-22T01:12:32.937Z,8.36
2018-03-22T01:13:33.392Z,8.35
2018-03-22T01:14:33.913Z,8.35
2018-03-22T01:15:34.328Z,8.34
2018-03-22T01:16:34.794Z,8.33
2018-03-22T01:17:35.264Z,8.35
2018-03-22T01:18:35.728Z,8.36
2018-03-22T01:19:36.246Z,8.35
2018-03-22T01:20:36.662Z,8.34
2018-03-22T01:21:37.131Z,8.33
2018-03-22T01:22:37.596Z,8.34
2018-03-22T01:23:38.065Z,8.33
2018-03-22T01:24:38.532Z,8.32
2018-03-22T01:25:38.999Z,8.32
2018-03-22T01:26:39.466Z,8.31
2018-03-22T01:27:39.934Z,8.31
2018-03-22T01:28:40.400Z,8.31
2018-03-22T01:29:40.866Z,8.29
2018-03-22T01:30:41.334Z,8.28
2018-03-22T01:31:41.801Z,8.27
2018-03-22T01:32:42.268Z,8.26
2018-03-22T01:33:42.736Z,8.27
2018-03-22T01:34:43.202Z,8.26
2018-03-22T01:35:43.670Z,8.25
2018-03-22T01:36:44.136Z,8.27
2018-03-22T01:37:44.604Z,8.24
2018-03-22T01:38:45.069Z,8.25
2018-03-22T01:39:45.536Z,8.24
2018-03-22T01:40:46.004Z,8.25
2018-03-22T01:41:46.472Z,8.26
2018-03-22T01:42:46.938Z,8.24
2018-03-22T01:43:47.404Z,8.24
2018-03-22T01:44:47.872Z,8.23
2018-03-22T01:45:48.338Z,8.22
2018-03-22T01:46:48.805Z,8.22
2018-03-22T01:47:49.272Z,8.21
2018-03-22T01:48:49.738Z,8.22
2018-03-22T01:49:50.255Z,8.21
2018-03-22T01:50:50.674Z,8.21
2018-03-22T01:51:51.139Z,8.19
2018-03-22T01:52:51.606Z,8.18
2018-03-22T01:53:52.074Z,8.18
2018-03-22T01:54:52.540Z,8.14
2018-03-22T01:55:53.006Z,8.14
2018-03-22T01:56:53.472Z,8.15
2018-03-22T01:57:53.941Z,8.15
2018-03-22T01:58:54.407Z,8.13
2018-03-22T01:59:54.924Z,8.14
2018-03-22T02:00:55.347Z,8.14
2018-03-22T02:01:55.811Z,8.14
2018-03-22T02:02:56.275Z,8.13
2018-03-22T02:03:56.743Z,8.14
2018-03-22T02:04:57.208Z,8.14
2018-03-22T02:05:57.788Z,8.14
2018-03-22T02:06:58.143Z,8.13
2018-03-22T02:07:58.613Z,8.13
2018-03-22T02:08:59.074Z,8.13
2018-03-22T02:09:59.545Z,8.13
2018-03-22T02:11:00.009Z,8.11
2018-03-22T02:12:00.478Z,8.09
2018-03-22T02:13:00.947Z,8.12
2018-03-22T02:14:01.413Z,8.11
2018-03-22T02:15:01.927Z,8.10
2018-03-22T02:16:02.342Z,8.08
2018-03-22T02:17:02.810Z,8.07
2018-03-22T02:18:03.276Z,8.10
2018-03-22T02:19:03.742Z,8.08
2018-03-22T02:20:04.212Z,8.07
2018-03-22T02:21:04.677Z,8.05
2018-03-22T02:22:05.145Z,8.05
2018-03-22T02:23:05.609Z,8.08
2018-03-22T02:24:06.077Z,8.07
2018-03-22T02:25:06.542Z,8.07
2018-03-22T02:26:07.009Z,8.08
2018-03-22T02:27:07.476Z,8.06
2018-03-22T02:28:07.943Z,8.04
2018-03-22T02:29:08.409Z,8.05
2018-03-22T02:30:08.928Z,8.04
2018-03-22T02:31:09.343Z,8.06
2018-03-22T02:32:09.810Z,8.07
2018-03-22T02:33:10.279Z,8.05
2018-03-22T02:34:10.749Z,8.05
2018-03-22T02:35:11.210Z,8.03
2018-03-22T02:36:11.678Z,8.02
2018-03-22T02:37:12.144Z,8.02
2018-03-22T02:38:12.610Z,8.02
2018-03-22T02:39:13.076Z,8.04
2018-03-22T02:40:13.543Z,8.04
2018-03-22T02:41:14.010Z,8.07
2018-03-22T02:42:14.479Z,8.05
2018-03-22T02:43:14.944Z,8.03
2018-03-22T02:44:15.411Z,8.03
2018-03-22T02:45:15.896Z,8.04
2018-03-22T02:46:16.343Z,8.04
2018-03-22T02:47:16.810Z,8.03
2018-03-22T02:48:17.276Z,8.03
2018-03-22T02:49:17.744Z,8.02
2018-03-22T02:50:18.462Z,8.04
2018-03-22T02:51:18.676Z,8.06
2018-03-22T02:52:19.145Z,8.06
2018-03-22T02:53:19.610Z,8.05
2018-03-22T02:54:20.076Z,8.04
2018-03-22T02:55:20.547Z,8.05
2018-03-22T02:56:21.009Z,8.05
2018-03-22T02:57:21.478Z,8.04
2018-03-22T02:58:21.944Z,8.04
2018-03-22T02:59:22.413Z,8.05
2018-03-22T03:00:22.880Z,8.04
2018-03-22T03:01:23.345Z,8.07
2018-03-22T03:02:23.818Z,8.07
2018-03-22T03:03:24.330Z,8.03
2018-03-22T03:04:24.742Z,8.02
2018-03-22T03:06:25.733Z,8.04
2018-03-22T03:07:26.144Z,8.02
2018-03-22T03:08:26.621Z,8.00
2018-03-22T03:09:27.082Z,7.99
2018-03-22T03:10:27.554Z,7.98
2018-03-22T03:11:28.009Z,7.98
2018-03-22T03:12:28.482Z,7.99
2018-03-22T03:13:28.952Z,7.98
2018-03-22T03:14:29.422Z,7.98
2018-03-22T03:15:29.875Z,7.99
2018-03-22T03:16:30.396Z,7.98
2018-03-22T03:17:30.810Z,7.96
2018-03-22T03:18:31.282Z,7.97
2018-03-22T03:19:31.746Z,7.98
2018-03-22T03:20:32.215Z,7.96
2018-03-22T03:21:32.682Z,7.98
2018-03-22T03:22:33.148Z,7.99
2018-03-22T03:24:34.077Z,7.98
2018-03-22T03:25:34.546Z,7.99
2018-03-22T03:26:35.013Z,7.99
2018-03-22T03:27:35.488Z,7.99
2018-03-22T03:28:35.951Z,7.99
2018-03-22T03:29:36.408Z,7.98
2018-03-22T03:30:36.875Z,7.97
2018-03-22T03:31:37.341Z,7.95
2018-03-22T03:32:37.853Z,7.96
2018-03-22T03:33:38.280Z,7.95
2018-03-22T03:34:38.748Z,7.94
2018-03-22T03:35:39.206Z,7.93
2018-03-22T03:36:39.679Z,7.92
2018-03-22T03:37:40.146Z,7.92
2018-03-22T03:39:41.078Z,7.90
2018-03-22T03:40:41.549Z,7.91
2018-03-22T03:41:42.065Z,7.90
2018-03-22T03:42:42.477Z,7.92
2018-03-22T03:43:42.944Z,7.94
2018-03-22T03:44:43.414Z,7.94
2018-03-22T03:46:44.341Z,7.95
2018-03-22T03:47:44.811Z,7.95
2018-03-22T03:48:45.278Z,7.94
2018-03-22T03:49:45.744Z,7.92
2018-03-22T03:50:46.213Z,7.94
2018-03-22T03:51:46.727Z,7.93
2018-03-22T03:52:47.144Z,7.94
2018-03-22T03:53:47.615Z,7.96
2018-03-22T03:54:48.077Z,7.94
2018-03-22T03:55:48.542Z,7.95
2018-03-22T03:56:49.004Z,7.93
2018-03-22T03:57:49.477Z,7.93
2018-03-22T03:58:49.943Z,7.94
2018-03-22T03:59:50.409Z,7.92
2018-03-22T04:00:50.876Z,7.94
2018-03-22T04:02:03.226Z,7.95
2018-03-22T04:02:51.810Z,7.96
2018-03-22T04:03:52.278Z,7.96
2018-03-22T04:04:52.743Z,7.95
2018-03-22T04:05:53.208Z,7.94
2018-03-22T04:07:05.210Z,7.96
2018-03-22T04:07:54.137Z,7.97
2018-03-22T04:08:54.610Z,7.98
2018-03-22T04:09:55.077Z,7.96
2018-03-22T04:10:55.540Z,7.96
2018-03-22T04:11:56.055Z,7.97
2018-03-22T04:12:56.474Z,7.97
2018-03-22T04:14:57.408Z,7.93
2018-03-22T04:15:57.871Z,7.94
2018-03-22T04:16:58.393Z,7.96
2018-03-22T04:17:58.809Z,7.94
2018-03-22T04:21:00.207Z,7.97
2018-03-22T04:22:00.676Z,7.96
2018-03-22T04:23:01.140Z,7.96
2018-03-22T04:24:01.607Z,7.97
2018-03-22T04:25:02.067Z,7.97
2018-03-22T04:27:15.249Z,7.98
2018-03-22T04:28:03.466Z,7.98
2018-03-22T04:30:04.405Z,7.99
2018-03-22T04:31:04.872Z,8.00
2018-03-22T04:32:05.387Z,7.99
2018-03-22T04:33:05.805Z,7.98
2018-03-22T04:34:06.271Z,7.97
2018-03-22T04:35:06.734Z,7.96
2018-03-22T04:36:07.203Z,7.96
2018-03-22T04:37:07.671Z,7.96
2018-03-22T04:38:08.139Z,7.97
2018-03-22T04:39:08.597Z,7.95
2018-03-22T04:40:09.069Z,7.97
2018-03-22T04:41:09.536Z,7.97
2018-03-22T04:42:09.997Z,7.97
2018-03-22T04:44:10.935Z,7.99
2018-03-22T04:45:11.402Z,7.99
2018-03-22T04:46:11.866Z,7.98
2018-03-22T04:47:12.335Z,7.97
2018-03-22T04:48:12.802Z,7.96
2018-03-22T04:49:13.268Z,7.97
2018-03-22T04:50:13.735Z,8.00
2018-03-22T04:51:14.201Z,7.99
2018-03-22T04:52:14.715Z,8.02
2018-03-22T04:53:15.134Z,8.01
2018-03-22T04:54:15.602Z,8.00
2018-03-22T04:55:16.067Z,7.99
2018-03-22T04:56:16.528Z,7.96
2018-03-22T04:57:16.998Z,7.97
2018-03-22T04:58:17.462Z,7.99
2018-03-22T04:59:17.969Z,7.96
2018-03-22T05:00:18.399Z,7.96
2018-03-22T05:01:18.859Z,7.97
2018-03-22T05:02:31.267Z,7.99
2018-03-22T05:03:19.798Z,8.00
2018-03-22T05:04:20.264Z,7.99
2018-03-22T05:06:21.197Z,7.97
2018-03-22T05:07:21.677Z,7.96
2018-03-22T05:08:22.126Z,7.96
2018-03-22T05:09:22.597Z,7.96
2018-03-22T05:10:23.066Z,7.98
2018-03-22T05:11:23.529Z,8.00
2018-03-22T05:12:35.278Z,8.00
2018-03-22T05:13:24.462Z,8.02
2018-03-22T05:15:25.397Z,8.05
2018-03-22T05:16:25.864Z,8.10
2018-03-22T05:17:26.338Z,8.10
2018-03-22T05:18:26.793Z,8.13
2018-03-22T05:19:27.263Z,8.14
2018-03-22T05:21:28.192Z,8.16
2018-03-22T05:22:28.662Z,8.17
2018-03-22T05:23:29.129Z,8.18
2018-03-22T05:24:29.596Z,8.22
2018-03-22T05:25:30.064Z,8.25
2018-03-22T05:26:30.531Z,8.28
2018-03-22T05:27:30.993Z,8.32
2018-03-22T05:28:31.463Z,8.36
2018-03-22T05:29:31.931Z,8.39
2018-03-22T05:30:32.397Z,8.43
2018-03-22T05:31:32.864Z,8.46
2018-03-22T05:32:45.263Z,8.51
2018-03-22T05:33:33.797Z,8.58
2018-03-22T05:34:34.265Z,8.62
2018-03-22T05:35:34.731Z,8.69
2018-03-22T05:36:35.197Z,8.71
2018-03-22T05:37:35.663Z,8.78
2018-03-22T05:38:36.130Z,8.85
2018-03-22T05:39:36.602Z,8.92
2018-03-22T05:40:37.064Z,8.98
2018-03-22T05:41:37.532Z,9.03
2018-03-22T05:42:38.000Z,9.10
2018-03-22T05:43:38.463Z,9.14
2018-03-22T05:45:39.400Z,9.27
2018-03-22T05:46:39.870Z,9.35
2018-03-22T05:47:40.387Z,9.39
2018-03-22T05:48:40.799Z,9.43
2018-03-22T05:49:41.271Z,9.49
2018-03-22T05:50:41.740Z,9.55
2018-03-22T05:51:42.221Z,9.59
2018-03-22T05:54:43.613Z,9.78
2018-03-22T05:55:44.078Z,9.85
2018-03-22T05:56:44.545Z,9.89
2018-03-22T05:57:56.303Z,9.96
2018-03-22T05:58:45.476Z,10.04
2018-03-22T05:59:45.948Z,10.08
2018-03-22T06:00:46.420Z,10.16
2018-03-22T06:01:46.883Z,10.23
2018-03-22T06:03:47.821Z,10.37
2018-03-22T06:04:48.299Z,10.44
2018-03-22T06:05:48.753Z,10.50
2018-03-22T06:06:49.225Z,10.55
2018-03-22T06:08:50.200Z,10.70
2018-03-22T06:09:50.635Z,10.76
2018-03-22T06:10:51.101Z,10.83
2018-03-22T06:11:51.565Z,10.88
2018-03-22T06:12:52.087Z,10.96
2018-03-22T06:13:52.505Z,11.04
2018-03-22T06:16:53.916Z,11.27
2018-03-22T06:17:54.382Z,11.35
2018-03-22T06:19:55.321Z,11.47
2018-03-22T06:20:55.791Z,11.54
2018-03-22T06:21:56.257Z,11.60
2018-03-22T06:22:56.729Z,11.68
2018-03-22T06:23:57.199Z,11.74
2018-03-22T06:25:58.143Z,11.86
2018-03-22T06:26:58.607Z,11.91
2018-03-22T06:27:59.380Z,11.95
2018-03-22T06:28:59.546Z,11.98
2018-03-22T06:30:00.020Z,12.00
2018-03-22T06:32:00.958Z,12.07
2018-03-22T06:33:01.477Z,12.09
2018-03-22T06:34:01.898Z,12.11
2018-03-22T06:35:02.368Z,12.13
2018-03-22T06:37:03.307Z,12.20
2018-03-22T06:39:04.247Z,12.27
2018-03-22T06:40:04.746Z,12.30
2018-03-22T06:42:05.660Z,12.37
2018-03-22T06:43:06.131Z,12.41
2018-03-22T06:45:18.349Z,12.49
2018-03-22T06:46:07.543Z,12.48
2018-03-22T06:47:08.013Z,12.51
2018-03-22T06:49:09.156Z,12.58
2018-03-22T06:50:09.474Z,12.61
2018-03-22T06:51:09.895Z,12.64
2018-03-22T06:52:10.366Z,12.68
2018-03-22T06:53:10.838Z,12.71
2018-03-22T06:55:11.830Z,12.75
2018-03-22T06:56:12.255Z,12.77
2018-03-22T06:57:12.717Z,12.81
2018-03-22T06:58:13.194Z,12.85
2018-03-22T06:59:13.661Z,12.88
2018-03-22T07:00:14.188Z,12.92
2018-03-22T07:01:14.610Z,12.97
2018-03-22T07:02:15.078Z,13.01
2018-03-22T07:03:15.557Z,13.05
2018-03-22T07:04:16.023Z,13.09
2018-03-22T07:05:16.490Z,13.11
2018-03-22T07:06:16.964Z,13.15
2018-03-22T07:07:17.440Z,13.20
2018-03-22T07:08:17.911Z,13.26
2018-03-22T07:09:18.378Z,13.28
2018-03-22T07:10:30.386Z,13.30
2018-03-22T07:11:19.326Z,13.36
2018-03-22T07:12:19.799Z,13.38
2018-03-22T07:13:20.272Z,13.41
2018-03-22T07:14:20.801Z,13.45
2018-03-22T07:15:21.262Z,13.47
2018-03-22T07:16:21.694Z,13.52
2018-03-22T07:17:22.158Z,13.55
2018-03-22T07:18:22.632Z,13.58
2018-03-22T07:19:23.105Z,13.61
2018-03-22T07:20:23.578Z,13.65
2018-03-22T07:21:24.048Z,13.68
2018-03-22T07:23:24.995Z,13.76
2018-03-22T07:24:25.469Z,13.82
2018-03-22T07:25:25.944Z,13.87
2018-03-22T07:26:26.414Z,13.90
2018-03-22T07:27:26.888Z,13.93
2018-03-22T07:29:27.833Z,14.02
2018-03-22T07:31:28.830Z,14.08
2018-03-22T07:32:29.266Z,14.12
2018-03-22T07:33:29.726Z,14.15
2018-03-22T07:34:30.203Z,14.18
2018-03-22T07:35:30.669Z,14.21
2018-03-22T07:36:31.450Z,14.24
2018-03-22T07:37:31.621Z,14.27
2018-03-22T07:38:32.099Z,14.29
2018-03-22T07:39:32.567Z,14.34
2018-03-22T07:40:33.042Z,14.37
2018-03-22T07:41:33.517Z,14.40
2018-03-22T07:42:33.989Z,14.42
2018-03-22T07:43:34.463Z,14.46
2018-03-22T07:44:34.938Z,14.51
2018-03-22T07:45:35.409Z,14.53
2018-03-22T07:46:35.939Z,14.55
2018-03-22T07:47:36.358Z,14.57
2018-03-22T07:48:36.828Z,14.60
2018-03-22T07:49:37.307Z,14.63
2018-03-22T07:50:37.784Z,14.66
2018-03-22T07:51:38.309Z,14.71
2018-03-22T07:52:38.753Z,14.73
2018-03-22T07:53:39.204Z,14.77
2018-03-22T07:54:39.680Z,14.81
2018-03-22T07:55:40.163Z,14.86
2018-03-22T07:57:41.106Z,14.93
2018-03-22T07:58:41.575Z,14.94
2018-03-22T07:59:42.054Z,14.98
2018-03-22T08:00:42.529Z,15.00
2018-03-22T08:01:43.301Z,15.02
2018-03-22T08:02:43.477Z,15.04
2018-03-22T08:03:43.955Z,15.08
2018-03-22T08:05:44.963Z,15.13
2018-03-22T08:06:45.429Z,15.15
2018-03-22T08:07:45.854Z,15.17
2018-03-22T08:08:46.325Z,15.18
2018-03-22T08:09:46.804Z,15.17
2018-03-22T08:10:47.279Z,15.14
2018-03-22T08:11:47.754Z,15.09
2018-03-22T08:13:48.700Z,14.89
2018-03-22T08:14:49.182Z,14.77
2018-03-22T08:15:49.658Z,14.65
2018-03-22T08:16:50.183Z,14.50
2018-03-22T08:17:50.606Z,14.34
2018-03-22T08:18:51.084Z,14.18
2018-03-22T08:19:51.558Z,14.02
2018-03-22T08:21:52.505Z,13.72
2018-03-22T08:22:52.976Z,13.57
2018-03-22T08:24:53.929Z,13.28
2018-03-22T08:25:54.404Z,13.12
2018-03-22T08:26:54.876Z,12.96
2018-03-22T08:27:55.350Z,12.80
2018-03-22T08:28:55.821Z,12.63
2018-03-22T08:29:56.295Z,12.51
2018-03-22T08:32:57.709Z,12.24
2018-03-22T08:33:58.186Z,12.18
2018-03-22T08:34:58.659Z,12.15
2018-03-22T08:35:59.125Z,12.14
2018-03-22T08:36:59.601Z,12.15
2018-03-22T08:39:00.539Z,12.20
2018-03-22T08:40:01.015Z,12.25
2018-03-22T08:41:01.487Z,12.31
2018-03-22T08:42:01.956Z,12.39
2018-03-22T08:43:02.455Z,12.48
2018-03-22T08:44:02.903Z,12.56
2018-03-22T08:45:03.377Z,12.65
2018-03-22T08:46:03.848Z,12.75
2018-03-22T08:47:04.313Z,12.86
2018-03-22T08:49:05.259Z,13.06
2018-03-22T08:50:05.727Z,13.16
2018-03-22T08:51:06.199Z,13.27
2018-03-22T08:52:06.672Z,13.38
2018-03-22T08:53:07.146Z,13.48
2018-03-22T08:54:07.614Z,13.56
2018-03-22T08:55:08.083Z,13.64
2018-03-22T08:56:08.559Z,13.74
2018-03-22T08:57:09.034Z,13.83
2018-03-22T08:58:09.554Z,13.92
2018-03-22T08:59:09.974Z,14.01
2018-03-22T09:00:10.448Z,14.12
2018-03-22T09:01:10.920Z,14.19
2018-03-22T09:02:11.397Z,14.29
2018-03-22T09:03:11.917Z,14.37
2018-03-22T09:04:12.339Z,14.46
2018-03-22T09:05:12.812Z,14.53
2018-03-22T09:06:13.283Z,14.61
2018-03-22T09:07:13.759Z,14.70
2018-03-22T09:08:14.290Z,14.79
2018-03-22T09:09:14.703Z,14.87
2018-03-22T09:10:15.179Z,14.96
2018-03-22T09:11:15.652Z,15.04
2018-03-22T09:12:16.126Z,15.09
2018-03-22T09:13:16.650Z,15.15
2018-03-22T09:15:17.549Z,15.26
2018-03-22T09:16:18.022Z,15.31
2018-03-22T09:17:18.499Z,15.36
2018-03-22T09:18:19.017Z,15.41
2018-03-22T09:19:19.454Z,15.47
2018-03-22T09:20:19.923Z,15.51
2018-03-22T09:21:20.398Z,15.57
2018-03-22T09:22:20.872Z,15.63
2018-03-22T09:23:21.352Z,15.72
2018-03-22T09:24:21.824Z,15.79
2018-03-22T09:25:22.299Z,15.85
2018-03-22T09:26:22.773Z,15.89
2018-03-22T09:27:23.245Z,15.92
2018-03-22T09:28:23.718Z,15.92
2018-03-22T09:29:24.199Z,15.90
2018-03-22T09:30:24.674Z,15.86
2018-03-22T09:31:25.151Z,15.80
2018-03-22T09:33:26.103Z,15.62
2018-03-22T09:34:26.578Z,15.50
2018-03-22T09:35:27.052Z,15.37
2018-03-22T09:36:27.528Z,15.24
2018-03-22T09:37:28.001Z,15.11
2018-03-22T09:38:28.529Z,14.99
2018-03-22T09:39:28.958Z,14.86
2018-03-22T09:40:29.426Z,14.76
2018-03-22T09:41:29.909Z,14.64
2018-03-22T09:42:30.380Z,14.53
2018-03-22T09:44:31.331Z,14.26
2018-03-22T09:45:31.810Z,14.13
2018-03-22T09:46:32.278Z,14.01
2018-03-22T09:47:32.745Z,13.89
2018-03-22T09:48:33.277Z,13.79
2018-03-22T09:49:33.696Z,13.69
2018-03-22T09:51:34.652Z,13.50
2018-03-22T09:52:35.115Z,13.42
2018-03-22T09:53:35.641Z,13.33
2018-03-22T09:54:36.064Z,13.27
2018-03-22T09:55:36.536Z,13.24
2018-03-22T09:56:37.010Z,13.23
2018-03-22T09:57:37.481Z,13.21
2018-03-22T09:58:49.535Z,13.21
2018-03-22T09:59:38.426Z,13.24
2018-03-22T10:00:38.895Z,13.30
2018-03-22T10:01:39.375Z,13.36
2018-03-22T10:02:39.840Z,13.42
2018-03-22T10:03:40.317Z,13.48
2018-03-22T10:04:40.783Z,13.57
2018-03-22T10:05:41.257Z,13.68
2018-03-22T10:06:41.729Z,13.77
2018-03-22T10:07:42.204Z,13.87
2018-03-22T10:08:42.723Z,13.97
2018-03-22T10:10:43.619Z,14.18
2018-03-22T10:11:44.087Z,14.28
2018-03-22T10:12:44.562Z,14.39
2018-03-22T10:13:45.087Z,14.52
2018-03-22T10:15:45.977Z,14.76
2018-03-22T10:16:46.452Z,14.88
2018-03-22T10:17:46.926Z,15.00
2018-03-22T10:19:47.874Z,15.22
2018-03-22T10:20:48.347Z,15.35
2018-03-22T10:21:48.824Z,15.50
2018-03-22T10:22:49.295Z,15.66
2018-03-22T10:23:49.767Z,15.82
2018-03-22T10:24:50.288Z,15.96
2018-03-22T10:25:50.734Z,16.10
2018-03-22T10:26:51.189Z,16.21
2018-03-22T10:27:51.666Z,16.32
2018-03-22T10:29:52.663Z,16.49
2018-03-22T10:30:53.084Z,16.58
2018-03-22T10:32:54.038Z,16.75
2018-03-22T10:33:54.515Z,16.81
2018-03-22T10:34:54.986Z,16.86
2018-03-22T10:35:55.510Z,16.92
2018-03-22T10:36:55.940Z,16.96
2018-03-22T10:37:56.417Z,16.99
2018-03-22T10:38:56.893Z,16.99
2018-03-22T10:39:57.369Z,16.97
2018-03-22T10:42:58.796Z,16.77
2018-03-22T10:43:59.274Z,16.66
2018-03-22T10:46:00.274Z,16.44
2018-03-22T10:47:00.703Z,16.33
2018-03-22T10:48:01.182Z,16.22
2018-03-22T10:49:01.662Z,16.11
2018-03-22T10:50:02.129Z,16.01
2018-03-22T10:51:02.605Z,15.91
2018-03-22T10:52:03.084Z,15.83
2018-03-22T10:53:03.557Z,15.75
2018-03-22T10:57:05.451Z,15.42
2018-03-22T10:58:05.929Z,15.33
2018-03-22T10:59:06.405Z,15.24
2018-03-22T11:01:07.355Z,15.02
2018-03-22T11:02:08.029Z,14.92
2018-03-22T11:03:08.300Z,14.82
2018-03-22T11:04:08.775Z,14.74
2018-03-22T11:05:09.250Z,14.64
2018-03-22T11:06:09.728Z,14.53
2018-03-22T11:07:10.193Z,14.44
2018-03-22T11:08:10.669Z,14.37
2018-03-22T11:09:11.139Z,14.33
2018-03-22T11:10:11.613Z,14.31
2018-03-22T11:11:12.136Z,14.32
2018-03-22T11:12:12.557Z,14.35
2018-03-22T11:13:13.026Z,14.40
2018-03-22T11:14:13.503Z,14.45
2018-03-22T11:16:14.497Z,14.60
2018-03-22T11:17:14.920Z,14.67
2018-03-22T11:18:15.392Z,14.76
2018-03-22T11:19:15.862Z,14.85
2018-03-22T11:20:16.336Z,14.94
2018-03-22T11:21:16.858Z,15.03
2018-03-22T11:22:17.279Z,15.12
2018-03-22T11:24:18.224Z,15.37
2018-03-22T11:25:18.695Z,15.48
2018-03-22T11:26:19.219Z,15.58
2018-03-22T11:27:19.642Z,15.67
2018-03-22T11:29:20.587Z,15.88
2018-03-22T11:30:21.057Z,16.00
2018-03-22T11:31:33.625Z,16.10
2018-03-22T11:32:22.006Z,16.19
2018-03-22T11:33:22.480Z,16.29
2018-03-22T11:34:22.956Z,16.37
2018-03-22T11:35:23.432Z,16.45
2018-03-22T11:36:23.900Z,16.55
2018-03-22T11:37:24.382Z,16.65
2018-03-22T11:38:24.849Z,16.79
2018-03-22T11:39:25.327Z,16.89
2018-03-22T11:40:25.798Z,16.98
2018-03-22T11:41:26.322Z,17.06
2018-03-22T11:42:26.753Z,17.17
2018-03-22T11:43:27.220Z,17.28
2018-03-22T11:44:27.696Z,17.36
2018-03-22T11:45:28.171Z,17.42
2018-03-22T11:46:28.698Z,17.50
2018-03-22T11:47:29.116Z,17.56
2018-03-22T11:48:29.597Z,17.60
2018-03-22T11:49:30.079Z,17.60
2018-03-22T11:50:30.548Z,17.57
2018-03-22T11:52:31.506Z,17.48
2018-03-22T11:53:31.978Z,17.42
2018-03-22T11:54:32.460Z,17.34
2018-03-22T11:55:32.928Z,17.23
2018-03-22T11:56:33.456Z,17.13
2018-03-22T11:57:33.882Z,17.02
2018-03-22T11:58:34.357Z,16.92
2018-03-22T11:59:34.829Z,16.81
2018-03-22T12:00:35.307Z,16.68
2018-03-22T12:01:47.679Z,16.55
2018-03-22T12:02:36.255Z,16.43
2018-03-22T12:03:36.735Z,16.30
2018-03-22T12:04:37.205Z,16.18
2018-03-22T12:05:37.684Z,16.07
2018-03-22T12:06:38.163Z,15.96
2018-03-22T12:07:38.634Z,15.84
2018-03-22T12:08:39.109Z,15.72
2018-03-22T12:09:39.585Z,15.61
2018-03-22T12:10:40.061Z,15.50
2018-03-22T12:11:40.531Z,15.40
2018-03-22T12:12:41.006Z,15.30
2018-03-22T12:13:41.477Z,15.20
2018-03-22T12:14:41.953Z,15.11
2018-03-22T12:15:42.422Z,15.00
2018-03-22T12:17:43.372Z,14.81
2018-03-22T12:18:43.845Z,14.72
2018-03-22T12:20:44.786Z,14.58
2018-03-22T12:22:45.786Z,14.52
2018-03-22T12:23:46.206Z,14.50
2018-03-22T12:24:46.678Z,14.49
2018-03-22T12:26:47.624Z,14.55
2018-03-22T12:27:59.682Z,14.62
2018-03-22T12:28:48.567Z,14.68
2018-03-22T12:29:49.039Z,14.76
2018-03-22T12:30:49.520Z,14.85
2018-03-22T12:31:49.984Z,14.95
2018-03-22T12:32:50.505Z,15.06
2018-03-22T12:33:50.927Z,15.18
2018-03-22T12:34:51.398Z,15.30
2018-03-22T12:35:51.870Z,15.40
2018-03-22T12:36:52.344Z,15.52
2018-03-22T12:37:52.811Z,15.63
2018-03-22T12:38:53.287Z,15.75
2018-03-22T12:39:53.761Z,15.85
2018-03-22T12:40:54.233Z,15.94
2018-03-22T12:41:54.705Z,16.04
2018-03-22T12:43:55.702Z,16.21
2018-03-22T12:44:56.123Z,16.31
2018-03-22T12:45:56.634Z,16.41
2018-03-22T12:46:57.079Z,16.52
2018-03-22T12:47:57.546Z,16.63
2018-03-22T12:48:58.018Z,16.74
2018-03-22T12:49:58.489Z,16.84
2018-03-22T12:50:58.967Z,16.93
2018-03-22T12:51:59.442Z,17.01
2018-03-22T12:52:59.914Z,17.09
2018-03-22T12:54:00.442Z,17.17
2018-03-22T12:55:00.865Z,17.25
2018-03-22T12:57:01.814Z,17.39
2018-03-22T12:58:02.289Z,17.46
2018-03-22T12:59:02.764Z,17.54
2018-03-22T13:00:03.293Z,17.58
2018-03-22T13:01:03.714Z,17.63
2018-03-22T13:02:04.190Z,17.67
2018-03-22T13:03:04.666Z,17.68
2018-03-22T13:05:05.616Z,17.62
2018-03-22T13:07:06.571Z,17.45
2018-03-22T13:08:07.045Z,17.35
2018-03-22T13:09:07.570Z,17.23
2018-03-22T13:10:07.999Z,17.11
2018-03-22T13:11:08.474Z,16.97
2018-03-22T13:12:08.949Z,16.82
2018-03-22T13:13:09.421Z,16.69
2018-03-22T13:14:09.951Z,16.55
2018-03-22T13:15:10.375Z,16.42
2018-03-22T13:17:11.327Z,16.15
2018-03-22T13:18:11.804Z,16.02
2018-03-22T13:19:12.320Z,15.87
2018-03-22T13:21:13.225Z,15.57
2018-03-22T13:22:13.700Z,15.42
2018-03-22T13:23:14.177Z,15.27
2018-03-22T13:24:14.770Z,15.13
2018-03-22T13:25:15.128Z,15.00
2018-03-22T13:26:15.589Z,14.88
2018-03-22T13:27:16.067Z,14.77
2018-03-22T13:28:16.539Z,14.67
2018-03-22T13:29:17.058Z,14.55
2018-03-22T13:30:17.490Z,14.44
2018-03-22T13:31:17.953Z,14.35
2018-03-22T13:32:18.431Z,14.30
2018-03-22T13:33:18.903Z,14.28
2018-03-22T13:35:19.892Z,14.25
2018-03-22T13:36:20.317Z,14.26
2018-03-22T13:37:20.790Z,14.29
2018-03-22T13:38:21.262Z,14.32
2018-03-22T13:39:21.735Z,14.38
2018-03-22T13:40:22.205Z,14.45
2018-03-22T13:41:22.673Z,14.53
2018-03-22T13:42:23.148Z,14.61
2018-03-22T13:43:23.683Z,14.70
2018-03-22T13:44:24.092Z,14.78
2018-03-22T13:45:24.571Z,14.88
2018-03-22T13:46:25.036Z,15.00
2018-03-22T13:47:25.506Z,15.09
2018-03-22T13:48:25.979Z,15.17
2018-03-22T13:51:27.390Z,15.45
2018-03-22T13:52:27.872Z,15.54
2018-03-22T13:54:28.812Z,15.74
2018-03-22T13:56:29.756Z,15.92
2018-03-22T13:57:30.231Z,16.01
2018-03-22T13:58:30.698Z,16.09
2018-03-22T13:59:31.172Z,16.17
2018-03-22T14:01:32.125Z,16.33
2018-03-22T14:02:32.591Z,16.42
2018-03-22T14:03:33.070Z,16.49
2018-03-22T14:04:33.544Z,16.57
2018-03-22T14:05:34.070Z,16.64
2018-03-22T14:06:34.491Z,16.70
2018-03-22T14:07:34.965Z,16.76
2018-03-22T14:08:35.436Z,16.81
2018-03-22T14:09:35.914Z,16.86
2018-03-22T14:10:36.439Z,16.91
2018-03-22T14:12:37.393Z,17.00
2018-03-22T14:13:37.813Z,17.05
2018-03-22T14:14:38.288Z,17.09
2018-03-22T14:15:38.763Z,17.12
2018-03-22T14:16:39.236Z,17.15
2018-03-22T14:17:39.721Z,17.16
2018-03-22T14:18:40.189Z,17.18
2018-03-22T14:19:40.663Z,17.18
2018-03-22T14:21:53.803Z,17.14
2018-03-22T14:22:42.089Z,17.08
2018-03-22T14:23:42.561Z,16.99
2018-03-22T14:24:43.040Z,16.89
2018-03-22T14:25:43.515Z,16.76
2018-03-22T14:26:43.995Z,16.62
2018-03-22T14:27:44.463Z,16.47
2018-03-22T14:28:44.942Z,16.30
2018-03-22T14:29:45.418Z,16.13